Aérodrome :
LOGIN :

S'inscrire | Disclaimer

   EN    FR    IT 

 










Légende :    VFR   VFR Marginal   IFR   IFR Intensif   IFR Très Intensif
Visi : 
Plafond : 
>= 8 km
>= 3000ft
5 à 8 km
1000 à 3000 ft
1500m à 5 km
500 à 1000 ft
800 à 1500m
200 à 500 ft
< 800m
< 200 ft
Symboles :   Orages  Brouillard  Fortes neiges  Fortes précipitations  Vent > 20 kt
SIGMETs :   Divers  Orages  Givrage  Turbulence  Onde Orograph.  Cendres Volcan.






- Altitude de l'aérodrome : 37 ft


EHVL - Vlieland Heliport

DERNIER METAR :
  • 091012Z AUTO 18016KT //// // SCT005 SCT018 BKN021 05/04 Q1000

METARs EXPIRÉS :
  • 091011Z AUTO 18016KT //// // FEW002 SCT005 BKN030 05/04 Q1000
  • 090955Z AUTO 18014KT //// // FEW001 SCT005 BKN024 05/04 Q1000 RE//
  • 090942Z AUTO 18015KT //// // FEW001 BKN005 BKN017 05/04 Q1000
  • 090929Z AUTO 18015KT //// // BKN001 BKN013 BKN022 04/03 Q1000
  • 090925Z AUTO 18015KT //// // SCT001 BKN017 BKN021 04/03 Q1000 RE//
  • 090915Z AUTO 18015KT //// // SCT001 BKN005 BKN016 04/03 Q1000
  • 090902Z AUTO 18015KT //// // FEW002 SCT032 BKN039 04/03 Q1000
  • 090855Z AUTO 18015KT //// // FEW002 BKN024 BKN029 04/03 Q1000 RE//
  • 090842Z AUTO 18017KT //// // BKN022 BKN025 OVC029 04/03 Q1000
  • 090825Z AUTO 18015KT //// // FEW015CB BKN037 OVC041 04/03 Q0999 RE//
  • 090816Z AUTO 18015KT //// // FEW015CB BKN032 BKN037 04/03 Q0999
  • 090805Z AUTO 18015KT //// // BKN001 BKN019 BKN024 04/03 Q0999
  • 090755Z AUTO 18014KT //// // FEW015CB SCT026 BKN032 04/03 Q0999 RE//
  • 090740Z AUTO 18016KT //// // SCT015CB BKN020 BKN023 04/03 Q0999
  • 090725Z AUTO 18015KT //// // FEW001 FEW015CB BKN036 BKN041 04/03 Q0999 RE//

Prévision TAF périmée.



MET'MAP, la Météo Aéronautique d'un coup d'oeil ! - Copyright ORBIFLY Décembre 2007 - Disclaimer

ORBIFLY MET'MAP TEAM :

Programmation & Développement : Alexandra Zaïnal
Sur une idée originale de : Baudouin d'Aumeries
Assistance à la programmation : Marc-Olivier Méhu
Soutien technique & logistique : Manuel Goepfert

Contact : metmap@orbifly.com




SOURCES & CREDITS :

   NOAA